createdAt,value
2017-04-27T07:49:44.236Z,95113.44
2017-04-27T07:52:12.777Z,95123.22
2017-04-27T07:54:40.114Z,95124.16
2017-04-27T07:57:06.591Z,95127.83
2017-04-27T07:59:32.868Z,95119.95
2017-04-27T08:01:59.344Z,95122.20
2017-04-27T08:04:25.726Z,95125.98
2017-04-27T08:06:52.021Z,95123.53
2017-04-27T08:09:18.323Z,95123.33
2017-04-27T08:11:45.433Z,95123.53
2017-04-27T08:14:11.835Z,95122.25
2017-04-27T08:16:38.154Z,95124.38
2017-04-27T08:19:05.271Z,95128.89
2017-04-27T08:21:31.865Z,95141.58
2017-04-27T08:23:58.146Z,95140.98
2017-04-27T08:26:24.549Z,95141.28
2017-04-27T08:28:50.908Z,95143.30
2017-04-27T08:31:17.186Z,95146.58
2017-04-27T08:33:43.623Z,95152.11
2017-04-27T08:36:09.965Z,95155.70
2017-04-27T08:38:37.033Z,95163.55
2017-04-27T08:41:04.108Z,95172.86
2017-04-27T08:43:30.435Z,95181.20
2017-04-27T08:45:57.839Z,95184.14
2017-04-27T08:48:24.203Z,95178.52
2017-04-27T08:50:51.503Z,95179.56
2017-04-27T08:53:17.815Z,95182.61
2017-04-27T08:55:44.880Z,95180.77
2017-04-27T08:58:11.202Z,95184.68
2017-04-27T09:00:38.265Z,95181.17
2017-04-27T09:03:05.335Z,95187.52
2017-04-27T09:05:34.312Z,95189.28
2017-04-27T09:08:01.363Z,95186.74
2017-04-27T09:10:28.419Z,95184.35
2017-04-27T09:12:55.499Z,95186.20
2017-04-27T09:15:21.855Z,95180.27
2017-04-27T09:17:49.199Z,95170.59
2017-04-27T09:20:15.496Z,95164.65
2017-04-27T09:22:42.529Z,95163.91
2017-04-27T09:25:08.956Z,95159.88
2017-04-27T09:27:35.215Z,95160.20
2017-04-27T09:30:01.580Z,95156.28
2017-04-27T09:32:27.976Z,95154.08
2017-04-27T09:34:54.336Z,95153.52
2017-04-27T09:37:27.113Z,95143.36
2017-04-27T09:39:53.728Z,95149.47
2017-04-27T09:42:19.999Z,95155.12
2017-04-27T09:44:47.038Z,95154.11
2017-04-27T09:47:14.166Z,95159.81
2017-04-27T09:49:40.492Z,95170.21
2017-04-27T09:52:06.815Z,95172.45
2017-04-27T09:54:33.160Z,95166.63
2017-04-27T09:56:59.490Z,95173.64
2017-04-27T09:59:26.067Z,95170.63
2017-04-27T10:01:52.511Z,95161.48
2017-04-27T10:04:18.858Z,95163.61
2017-04-27T10:06:45.215Z,95174.61
2017-04-27T10:09:12.392Z,95183.41
2017-04-27T10:11:38.719Z,95190.45
2017-04-27T10:14:05.047Z,95201.91
2017-04-27T10:16:32.733Z,95194.73
2017-04-27T10:18:59.030Z,95197.35
2017-04-27T10:21:26.102Z,95198.78
2017-04-27T10:23:53.363Z,95193.74
2017-04-27T10:26:19.751Z,95197.78
2017-04-27T10:28:46.027Z,95188.84
2017-04-27T10:31:13.107Z,95189.30
2017-04-27T10:33:39.418Z,95192.86
2017-04-27T10:36:06.479Z,95190.20
2017-04-27T10:38:33.757Z,95187.05
2017-04-27T10:41:00.093Z,95182.83
2017-04-27T10:43:26.415Z,95178.29
2017-04-27T10:45:52.795Z,95178.02
2017-04-27T10:48:19.090Z,95182.70
2017-04-27T10:50:45.436Z,95176.84
2017-04-27T10:53:11.988Z,95177.66
2017-04-27T10:55:38.318Z,95170.94
2017-04-27T10:58:04.660Z,95164.36
2017-04-27T11:00:32.217Z,95158.59
2017-04-27T11:02:58.520Z,95166.11
2017-04-27T11:05:25.611Z,95167.13
2017-04-27T11:07:51.908Z,95176.09
2017-04-27T11:10:18.959Z,95181.73
2017-04-27T11:12:45.290Z,95184.16
2017-04-27T11:15:12.523Z,95187.79
2017-04-27T11:17:38.823Z,95187.87
2017-04-27T11:20:05.138Z,95192.66
2017-04-27T11:22:32.217Z,95190.13
2017-04-27T11:24:58.471Z,95181.38
2017-04-27T11:27:39.718Z,95174.89
2017-04-27T11:30:06.047Z,95172.89
2017-04-27T11:32:33.133Z,95169.29
2017-04-27T11:35:00.595Z,95166.12
2017-04-27T11:37:26.893Z,95165.39
2017-04-27T11:39:53.944Z,95168.05
2017-04-27T11:42:21.235Z,95161.00
2017-04-27T11:44:47.582Z,95161.19
2017-04-27T11:47:14.926Z,95165.24
2017-04-27T11:49:43.317Z,95162.57
2017-04-27T11:52:09.582Z,95154.11
2017-04-27T11:54:35.947Z,95150.07
2017-04-27T11:57:03.072Z,95154.95
2017-04-27T11:59:29.371Z,95161.28
2017-04-27T12:01:55.709Z,95163.56
2017-04-27T12:04:22.250Z,95168.49
2017-04-27T12:06:48.599Z,95160.64
2017-04-27T12:09:14.992Z,95171.14
2017-04-27T12:11:42.927Z,95178.71
2017-04-27T12:14:09.330Z,95175.84
2017-04-27T12:16:36.660Z,95180.75
2017-04-27T12:19:04.773Z,95188.04
2017-04-27T12:21:37.610Z,95181.59
2017-04-27T12:24:04.996Z,95180.23
2017-04-27T12:26:32.049Z,95176.78
2017-04-27T12:28:59.098Z,95180.38
2017-04-27T12:31:26.127Z,95172.71
2017-04-27T12:33:52.499Z,95175.00
2017-04-27T12:36:18.888Z,95177.36
2017-04-27T12:38:46.414Z,95174.05
2017-04-27T12:41:12.775Z,95163.27
2017-04-27T12:43:40.096Z,95151.16
2017-04-27T12:46:07.173Z,95157.94
2017-04-27T12:48:33.569Z,95170.39
2017-04-27T12:51:00.619Z,95176.42
2017-04-27T12:53:27.010Z,95179.95
2017-04-27T12:56:08.243Z,95170.61
2017-04-27T12:58:39.351Z,95167.17
2017-04-27T13:01:05.610Z,95163.72
2017-04-27T13:03:32.683Z,95153.53
2017-04-27T13:06:00.811Z,95151.27
2017-04-27T13:08:27.095Z,95162.70
2017-04-27T13:10:54.075Z,95174.39
2017-04-27T13:13:20.381Z,95178.76
2017-04-27T13:15:47.459Z,95178.02
2017-04-27T13:18:29.771Z,95176.03
2017-04-27T13:20:56.127Z,95177.56
2017-04-27T13:23:22.502Z,95177.02
2017-04-27T13:25:49.957Z,95179.14
2017-04-27T13:28:16.304Z,95169.11
2017-04-27T13:30:43.391Z,95168.72
2017-04-27T13:33:10.769Z,95167.89
2017-04-27T13:35:37.071Z,95165.83
2017-04-27T13:38:05.128Z,95164.89
2017-04-27T13:40:33.191Z,95168.17
2017-04-27T13:42:59.555Z,95168.80
2017-04-27T13:45:26.743Z,95168.95
2017-04-27T13:47:53.080Z,95156.70
2017-04-27T13:50:19.395Z,95159.75
2017-04-27T13:52:45.718Z,95155.52
2017-04-27T13:55:12.856Z,95152.08
2017-04-27T13:57:54.143Z,95151.31
2017-04-27T14:00:37.024Z,95150.28
2017-04-27T14:03:03.306Z,95149.52
2017-04-27T14:05:30.360Z,95144.91
2017-04-27T14:07:56.709Z,95147.30
2017-04-27T14:10:23.056Z,95144.64
2017-04-27T14:12:49.518Z,95145.81
2017-04-27T14:15:15.877Z,95138.73
2017-04-27T14:17:43.023Z,95152.98
2017-04-27T14:20:09.336Z,95156.13
2017-04-27T14:22:35.707Z,95156.52
2017-04-27T14:25:02.802Z,95158.71
2017-04-27T14:27:29.170Z,95152.02
2017-04-27T14:29:55.495Z,95141.48
2017-04-27T14:32:22.500Z,95129.66
2017-04-27T14:34:48.856Z,95137.30
2017-04-27T14:37:17.008Z,95139.61
2017-04-27T14:39:44.270Z,95148.45
2017-04-27T14:42:10.634Z,95154.23
2017-04-27T14:44:36.986Z,95141.20
2017-04-27T14:47:03.300Z,95143.83
2017-04-27T14:49:30.379Z,95146.11
2017-04-27T14:51:57.739Z,95141.59
2017-04-27T14:54:24.059Z,95154.32
2017-04-27T14:56:50.523Z,95153.30
2017-04-27T14:59:16.831Z,95146.66
2017-04-27T15:01:43.167Z,95141.73
2017-04-27T15:04:10.220Z,95151.37
2017-04-27T15:06:37.255Z,95147.99
2017-04-27T15:09:04.348Z,95144.66
2017-04-27T15:11:30.709Z,95148.88
2017-04-27T15:13:57.047Z,95153.13
2017-04-27T15:16:23.423Z,95149.12
2017-04-27T15:18:50.523Z,95146.65
2017-04-27T15:21:16.826Z,95145.52
2017-04-27T15:23:43.889Z,95143.33
2017-04-27T15:26:10.286Z,95136.20
2017-04-27T15:28:36.644Z,95131.27
2017-04-27T15:31:03.766Z,95133.50
2017-04-27T15:33:30.131Z,95136.08
2017-04-27T15:35:57.208Z,95137.84
2017-04-27T15:38:23.599Z,95137.48
2017-04-27T15:41:04.912Z,95137.36
2017-04-27T15:43:31.964Z,95135.81
2017-04-27T15:45:59.010Z,95130.93
2017-04-27T15:48:26.309Z,95130.04
2017-04-27T15:50:52.643Z,95133.81
2017-04-27T15:53:18.971Z,95138.13
2017-04-27T15:55:45.356Z,95131.72
2017-04-27T15:58:12.672Z,95128.11
2017-04-27T16:00:40.055Z,95131.53
2017-04-27T16:03:06.369Z,95135.30
2017-04-27T16:05:32.668Z,95131.89
2017-04-27T16:07:59.722Z,95135.93
2017-04-27T16:10:27.828Z,95140.01
2017-04-27T16:12:54.147Z,95124.73
2017-04-27T16:15:21.187Z,95126.93
2017-04-27T16:17:48.299Z,95124.52
2017-04-27T16:20:14.608Z,95122.69
2017-04-27T16:22:40.939Z,95131.52
2017-04-27T16:25:07.407Z,95128.55
2017-04-27T16:27:33.725Z,95121.55
2017-04-27T16:30:01.070Z,95121.47
2017-04-27T16:32:28.161Z,95119.09
2017-04-27T16:34:54.455Z,95117.30
2017-04-27T16:37:21.556Z,95116.02
2017-04-27T16:39:47.891Z,95113.77
2017-04-27T16:42:14.224Z,95109.78
2017-04-27T16:44:41.826Z,95110.70
2017-04-27T16:47:08.227Z,95110.16
2017-04-27T16:49:34.527Z,95117.31
2017-04-27T16:52:00.836Z,95116.77
2017-04-27T16:54:27.416Z,95108.48
2017-04-27T16:56:53.755Z,95107.45
2017-04-27T16:59:20.155Z,95116.34
2017-04-27T17:01:46.523Z,95115.34
2017-04-27T17:04:12.848Z,95109.16
2017-04-27T17:06:39.890Z,95105.93
2017-04-27T17:09:06.981Z,95105.55
2017-04-27T17:11:33.224Z,95111.76
2017-04-27T17:13:59.523Z,95107.35
2017-04-27T17:16:26.812Z,95100.02
2017-04-27T17:18:53.121Z,95100.36
2017-04-27T17:21:21.178Z,95099.44
2017-04-27T17:23:53.597Z,95094.59
2017-04-27T17:26:20.229Z,95086.72
2017-04-27T17:28:47.576Z,95094.69
2017-04-27T17:31:14.620Z,95091.69
2017-04-27T17:33:41.679Z,95100.17
2017-04-27T17:36:08.824Z,95102.33
2017-04-27T17:38:36.099Z,95103.88
2017-04-27T17:41:03.168Z,95107.41
2017-04-27T17:43:29.516Z,95099.16
2017-04-27T17:45:55.844Z,95097.88
2017-04-27T17:48:22.164Z,95110.19
2017-04-27T17:50:48.519Z,95103.07
2017-04-27T17:53:14.958Z,95114.61
2017-04-27T17:55:41.983Z,95112.13
2017-04-27T17:58:09.039Z,95109.92
2017-04-27T18:00:36.439Z,95101.28
2017-04-27T18:03:02.719Z,95094.21
2017-04-27T18:05:29.294Z,95090.84
2017-04-27T18:07:55.836Z,95085.99
2017-04-27T18:10:22.199Z,95086.39
2017-04-27T18:12:48.475Z,95095.94
2017-04-27T18:15:14.854Z,95105.30
2017-04-27T18:17:41.172Z,95096.77
2017-04-27T18:20:08.247Z,95102.88
2017-04-27T18:22:34.588Z,95101.70
2017-04-27T18:25:00.887Z,95108.84
2017-04-27T18:27:27.947Z,95104.44
2017-04-27T18:29:55.035Z,95105.40
2017-04-27T18:32:21.332Z,95105.79
2017-04-27T18:34:48.371Z,95110.02
2017-04-27T18:37:16.177Z,95122.05
2017-04-27T18:39:42.487Z,95116.72
2017-04-27T18:42:09.545Z,95112.43
2017-04-27T18:44:36.662Z,95115.37
2017-04-27T18:47:02.988Z,95117.36
2017-04-27T18:49:29.319Z,95122.95
2017-04-27T18:51:55.610Z,95116.78
2017-04-27T18:54:22.696Z,95103.49
2017-04-27T18:56:49.063Z,95102.16
2017-04-27T18:59:16.150Z,95100.90
2017-04-27T19:01:43.209Z,95107.71
2017-04-27T19:04:11.323Z,95101.55
2017-04-27T19:06:38.396Z,95112.22
2017-04-27T19:09:05.531Z,95122.48
2017-04-27T19:11:32.558Z,95119.42
2017-04-27T19:13:58.836Z,95115.67
2017-04-27T19:16:25.961Z,95108.28
2017-04-27T19:18:53.317Z,95115.03
2017-04-27T19:21:20.692Z,95116.37
2017-04-27T19:23:47.036Z,95121.41
2017-04-27T19:26:15.435Z,95120.82
2017-04-27T19:28:41.731Z,95116.05
2017-04-27T19:31:08.031Z,95117.07
2017-04-27T19:33:34.527Z,95126.61
2017-04-27T19:36:00.851Z,95115.75
2017-04-27T19:38:27.155Z,95112.75
2017-04-27T19:40:54.267Z,95123.41
2017-04-27T19:43:21.384Z,95112.11
2017-04-27T19:45:49.755Z,95110.82
2017-04-27T19:48:16.843Z,95099.78
2017-04-27T19:50:43.150Z,95096.19
2017-04-27T19:53:10.179Z,95092.60
2017-04-27T19:55:36.555Z,95088.53
2017-04-27T19:58:02.955Z,95087.14
2017-04-27T20:00:29.438Z,95092.03
2017-04-27T20:02:56.494Z,95090.64
2017-04-27T20:05:22.834Z,95099.67
2017-04-27T20:07:49.155Z,95103.88
2017-04-27T20:10:15.507Z,95100.76
2017-04-27T20:12:41.823Z,95100.16
2017-04-27T20:15:08.909Z,95091.49
2017-04-27T20:17:35.207Z,95090.63
2017-04-27T20:20:02.304Z,95086.76
2017-04-27T20:22:28.605Z,95087.98
2017-04-27T20:24:55.153Z,95088.68
2017-04-27T20:27:21.480Z,95091.30
2017-04-27T20:29:48.543Z,95085.95
2017-04-27T20:32:15.711Z,95084.82
2017-04-27T20:34:42.041Z,95081.99
2017-04-27T20:37:08.347Z,95087.53
2017-04-27T20:39:35.431Z,95090.41
2017-04-27T20:42:02.486Z,95088.85
2017-04-27T20:44:29.590Z,95079.81
2017-04-27T20:46:55.967Z,95075.88
2017-04-27T20:49:23.013Z,95077.10
2017-04-27T20:51:50.087Z,95084.80
2017-04-27T20:54:16.424Z,95084.34
2017-04-27T20:56:42.728Z,95087.64
2017-04-27T20:59:09.812Z,95076.63
2017-04-27T21:01:36.267Z,95077.79
2017-04-27T21:04:02.586Z,95079.76
2017-04-27T21:06:28.888Z,95070.09
2017-04-27T21:08:55.909Z,95063.17
2017-04-27T21:11:23.220Z,95061.33
2017-04-27T21:13:49.575Z,95064.23
2017-04-27T21:16:16.605Z,95057.83
2017-04-27T21:18:42.968Z,95054.13
2017-04-27T21:21:10.364Z,95057.26
2017-04-27T21:23:36.968Z,95054.19
2017-04-27T21:26:03.765Z,95046.15
2017-04-27T21:28:30.698Z,95049.09
2017-04-27T21:30:57.074Z,95047.36
2017-04-27T21:33:24.140Z,95050.33
2017-04-27T21:35:50.455Z,95052.30
2017-04-27T21:38:17.613Z,95058.11
2017-04-27T21:40:44.683Z,95058.27
2017-04-27T21:43:11.732Z,95059.70
2017-04-27T21:45:38.119Z,95059.70
2017-04-27T21:48:04.440Z,95062.05
2017-04-27T21:50:30.883Z,95049.45
2017-04-27T21:52:57.178Z,95043.19
2017-04-27T21:55:23.741Z,95042.00
2017-04-27T21:57:50.065Z,95043.81
2017-04-27T22:00:16.447Z,95057.31
2017-04-27T22:02:42.856Z,95042.09
2017-04-27T22:05:09.183Z,95036.22
2017-04-27T22:07:35.492Z,95035.09
2017-04-27T22:10:02.609Z,95033.55
2017-04-27T22:12:29.718Z,95030.09
2017-04-27T22:14:56.806Z,95028.43
2017-04-27T22:17:23.156Z,95015.77
2017-04-27T22:19:49.595Z,95008.30
2017-04-27T22:22:15.887Z,95000.11
2017-04-27T22:24:42.270Z,94999.33
2017-04-27T22:27:08.599Z,95000.02
2017-04-27T22:29:34.895Z,94999.58
2017-04-27T22:32:01.256Z,94988.20
2017-04-27T22:34:27.554Z,94996.27
2017-04-27T22:36:54.639Z,94984.73
2017-04-27T22:39:20.975Z,94980.29
2017-04-27T22:41:47.289Z,94993.04
2017-04-27T22:44:13.613Z,94983.38
2017-04-27T22:46:40.702Z,94976.16
2017-04-27T22:49:06.959Z,94977.88
2017-04-27T22:51:33.332Z,94978.10
2017-04-27T22:53:59.756Z,94979.54
2017-04-27T22:56:26.136Z,94979.16
2017-04-27T22:58:52.493Z,94985.41
2017-04-27T23:01:18.916Z,94987.76
2017-04-27T23:03:45.239Z,94973.35
2017-04-27T23:06:12.329Z,94970.41
2017-04-27T23:08:38.849Z,94971.09
2017-04-27T23:11:05.199Z,94967.03
2017-04-27T23:13:31.524Z,94963.25
2017-04-27T23:15:57.887Z,94963.25
2017-04-27T23:18:24.188Z,94958.81
2017-04-27T23:20:50.532Z,94956.09
2017-04-27T23:23:16.868Z,94952.16
2017-04-27T23:25:43.199Z,94950.19
2017-04-27T23:28:09.555Z,94962.56
2017-04-27T23:30:35.912Z,94964.22
2017-04-27T23:33:02.263Z,94955.72
2017-04-27T23:35:29.422Z,94951.72
2017-04-27T23:37:56.550Z,94943.28
2017-04-27T23:40:22.891Z,94936.19
2017-04-27T23:42:49.183Z,94943.78
2017-04-27T23:45:16.247Z,94950.94
2017-04-27T23:47:42.550Z,94951.78
2017-04-27T23:50:08.916Z,94958.19
2017-04-27T23:52:35.298Z,94961.13
2017-04-27T23:55:02.462Z,94954.78
2017-04-27T23:57:29.572Z,94945.00
2017-04-27T23:59:55.943Z,94951.25
